Time;durP1;ratioP1;P1;durP2;ratioP2;P2;SDS_P1;SDS_P2;PMS_P1;PMS_P2;Temp;Humidity;BMP_temperature;BMP_pressure;BME280_temperature;BME280_humidity;BME280_pressure;Samples;Min_cycle;Max_cycle;Signal;HPM_P1;HPM_P2
2023/04/04 00:01:40;;;;;;;8.73;4.05;;;2.10;99.90;;;;;;5015717;28;20045;-82
2023/04/04 00:04:05;;;;;;;8.57;3.80;;;2.10;99.90;;;;;;5032716;28;20049;-82
2023/04/04 00:06:31;;;;;;;7.70;3.85;;;2.10;99.90;;;;;;4999986;28;20050;-82
2023/04/04 00:08:57;;;;;;;9.95;4.97;;;2.10;99.90;;;;;;5032289;28;20045;-82
2023/04/04 00:11:23;;;;;;;8.27;4.47;;;2.10;99.90;;;;;;5049017;28;20045;-82
2023/04/04 00:13:48;;;;;;;9.65;4.47;;;2.00;99.90;;;;;;5049286;28;20082;-82
2023/04/04 00:16:14;;;;;;;8.43;4.50;;;2.00;99.90;;;;;;5048814;28;20038;-81
2023/04/04 00:18:40;;;;;;;10.05;5.00;;;1.90;99.90;;;;;;5016149;28;20100;-81
2023/04/04 00:21:06;;;;;;;9.45;4.60;;;1.90;99.90;;;;;;4999309;28;20045;-82
2023/04/04 00:23:31;;;;;;;7.85;4.13;;;1.80;99.90;;;;;;5015372;28;20127;-82
2023/04/04 00:25:57;;;;;;;8.23;3.88;;;1.70;99.90;;;;;;5032211;28;20119;-82
2023/04/04 00:28:23;;;;;;;6.95;3.72;;;2.10;99.90;;;;;;5048992;28;20053;-82
2023/04/04 00:30:49;;;;;;;7.78;4.35;;;1.80;99.90;;;;;;5033398;28;20112;-82
2023/04/04 00:33:14;;;;;;;7.68;4.05;;;1.80;99.90;;;;;;5053293;28;20045;-82
2023/04/04 00:35:40;;;;;;;8.65;3.83;;;1.80;99.90;;;;;;5036457;28;20132;-83
2023/04/04 00:38:06;;;;;;;7.60;3.97;;;1.80;99.90;;;;;;5036502;28;20053;-82
2023/04/04 00:40:44;;;;;;;9.50;3.88;;;1.80;99.90;;;;;;5035884;28;20616;-82
2023/04/04 00:43:10;;;;;;;7.95;3.85;;;1.80;99.90;;;;;;5036439;28;20068;-82
2023/04/04 00:45:36;;;;;;;7.90;3.60;;;1.80;99.90;;;;;;5019850;28;20042;-82
2023/04/04 00:48:02;;;;;;;7.75;4.03;;;1.80;99.90;;;;;;5052893;28;20057;-82
2023/04/04 00:50:28;;;;;;;9.60;4.50;;;1.80;99.90;;;;;;5052889;28;20482;-82
2023/04/04 00:52:55;;;;;;;9.18;3.95;;;1.80;99.90;;;;;;5035593;28;20049;-82
2023/04/04 00:55:21;;;;;;;8.52;4.05;;;1.80;99.90;;;;;;5035436;28;20490;-81
2023/04/04 00:57:47;;;;;;;8.32;4.05;;;1.70;99.90;;;;;;5035864;28;20057;-82
2023/04/04 01:00:14;;;;;;;9.95;4.47;;;1.70;99.90;;;;;;5036065;28;20378;-81
2023/04/04 01:02:40;;;;;;;7.88;4.15;;;1.70;99.90;;;;;;5036130;28;20111;-81
2023/04/04 01:05:06;;;;;;;8.80;4.10;;;1.70;99.90;;;;;;5019386;28;20049;-81
2023/04/04 01:07:34;;;;;;;8.73;4.22;;;1.70;99.90;;;;;;5035656;28;20092;-82
2023/04/04 01:10:01;;;;;;;7.38;4.15;;;1.70;99.90;;;;;;5035973;28;20115;-81
2023/04/04 01:12:27;;;;;;;8.02;4.00;;;1.70;99.90;;;;;;5019422;28;20049;-82
2023/04/04 01:14:53;;;;;;;8.40;3.90;;;1.60;99.90;;;;;;5035734;28;20430;-82
2023/04/04 01:17:19;;;;;;;10.43;4.60;;;1.50;99.90;;;;;;5035231;28;20137;-81
2023/04/04 01:19:54;;;;;;;8.68;3.80;;;1.50;99.90;;;;;;5035667;28;20053;-81
2023/04/04 01:22:22;;;;;;;6.25;3.35;;;1.50;99.90;;;;;;5035645;28;20501;-81
2023/04/04 01:24:48;;;;;;;8.80;4.35;;;1.40;99.90;;;;;;5035661;28;20114;-81
2023/04/04 01:27:15;;;;;;;9.13;4.30;;;1.40;99.90;;;;;;5002924;28;20366;-81
2023/04/04 01:29:40;;;;;;;8.98;4.10;;;1.40;99.90;;;;;;5002907;28;20396;-81
2023/04/04 01:32:18;;;;;;;9.23;4.55;;;1.40;99.90;;;;;;5035306;28;20048;-82
2023/04/04 01:34:47;;;;;;;8.70;4.45;;;1.30;99.90;;;;;;5035416;28;20056;-80
2023/04/04 01:37:31;;;;;;;8.30;4.38;;;1.30;99.90;;;;;;5035276;28;20090;-82
2023/04/04 01:40:05;;;;;;;10.75;4.70;;;1.30;99.90;;;;;;5035309;28;20045;-81
2023/04/04 01:42:31;;;;;;;9.02;4.40;;;2.20;99.90;;;;;;5018165;28;20107;-81
2023/04/04 01:44:57;;;;;;;10.38;4.43;;;1.20;99.90;;;;;;5035227;28;20060;-80
2023/04/04 01:47:23;;;;;;;10.25;4.90;;;1.10;99.90;;;;;;5018818;28;20417;-80
2023/04/04 01:49:49;;;;;;;8.73;4.38;;;1.10;99.90;;;;;;5018517;28;20053;-80
2023/04/04 01:52:15;;;;;;;10.65;4.40;;;1.00;99.90;;;;;;5018377;28;20575;-80
2023/04/04 01:54:41;;;;;;;9.75;4.35;;;1.00;99.90;;;;;;5034708;28;20084;-80
2023/04/04 01:57:07;;;;;;;8.93;3.90;;;0.90;99.90;;;;;;5034747;28;20042;-80
2023/04/04 01:59:33;;;;;;;8.50;3.90;;;1.00;99.90;;;;;;5001865;28;20041;-81
2023/04/04 02:01:58;;;;;;;7.60;3.50;;;1.00;99.90;;;;;;5034874;28;20050;-80
2023/04/04 02:04:24;;;;;;;6.57;3.72;;;1.00;99.90;;;;;;4985836;28;20038;-80
2023/04/04 02:06:51;;;;;;;8.40;4.10;;;1.00;99.90;;;;;;5018430;28;20108;-80
2023/04/04 02:09:17;;;;;;;8.35;3.97;;;1.00;99.90;;;;;;5002326;28;20053;-80
2023/04/04 02:11:43;;;;;;;8.57;3.80;;;1.00;99.90;;;;;;5002030;28;20132;-80
2023/04/04 02:14:08;;;;;;;10.10;4.30;;;1.00;99.90;;;;;;4985868;28;20128;-80
2023/04/04 02:16:34;;;;;;;8.85;4.10;;;1.00;99.90;;;;;;5001850;28;20049;-79
2023/04/04 02:19:00;;;;;;;10.85;4.18;;;0.90;99.90;;;;;;5018146;28;20049;-80
2023/04/04 02:21:26;;;;;;;8.30;3.80;;;0.90;99.90;;;;;;4985542;28;20103;-81
2023/04/04 02:23:52;;;;;;;9.10;4.32;;;0.90;99.90;;;;;;5034520;28;20045;-80
2023/04/04 02:26:18;;;;;;;9.43;4.10;;;0.80;99.90;;;;;;5018060;28;20061;-80
2023/04/04 02:28:44;;;;;;;8.95;4.18;;;0.80;99.90;;;;;;5034390;28;20402;-80
2023/04/04 02:31:10;;;;;;;9.27;4.15;;;0.80;99.90;;;;;;5017890;28;20378;-80
2023/04/04 02:33:36;;;;;;;8.82;4.30;;;0.70;99.90;;;;;;5033688;28;20041;-82
2023/04/04 02:36:01;;;;;;;9.80;4.57;;;0.60;99.90;;;;;;5001513;28;20135;-80
2023/04/04 02:38:27;;;;;;;8.75;4.07;;;0.60;99.90;;;;;;5017531;28;20133;-80
2023/04/04 02:40:53;;;;;;;7.85;3.90;;;1.00;99.90;;;;;;5001350;28;20045;-80
2023/04/04 02:43:19;;;;;;;8.38;3.95;;;0.60;99.90;;;;;;5034140;28;20045;-80
2023/04/04 02:45:47;;;;;;;8.23;3.90;;;0.60;99.90;;;;;;5034056;28;20065;-80
2023/04/04 02:48:13;;;;;;;8.23;3.85;;;0.60;99.90;;;;;;5017319;28;20095;-79
2023/04/04 02:50:39;;;;;;;9.95;4.07;;;0.60;99.90;;;;;;4984883;28;20042;-80
2023/04/04 02:53:05;;;;;;;8.60;4.03;;;0.60;99.90;;;;;;5033451;28;20485;-80
2023/04/04 02:55:34;;;;;;;7.85;3.92;;;0.50;99.90;;;;;;5000637;28;20054;-80
2023/04/04 02:58:00;;;;;;;10.07;4.15;;;0.40;99.90;;;;;;5001639;28;20055;-80
2023/04/04 03:00:26;;;;;;;8.10;4.03;;;0.40;99.90;;;;;;5017346;28;20049;-80
2023/04/04 03:02:56;;;;;;;9.25;3.63;;;0.40;99.90;;;;;;5033725;28;20049;-80
2023/04/04 03:05:25;;;;;;;9.40;4.15;;;0.40;99.90;;;;;;5033428;28;20037;-80
2023/04/04 03:07:56;;;;;;;9.50;4.47;;;0.90;99.90;;;;;;5033476;28;20555;-80
2023/04/04 03:10:23;;;;;;;8.82;4.40;;;0.30;99.90;;;;;;5000950;28;20151;-80
2023/04/04 03:12:49;;;;;;;8.38;3.85;;;0.20;99.90;;;;;;5016800;28;20050;-80
2023/04/04 03:15:15;;;;;;;8.52;4.05;;;0.20;99.90;;;;;;5000797;28;20053;-80
2023/04/04 03:17:41;;;;;;;10.88;3.90;;;0.20;99.90;;;;;;5032859;28;20050;-80
2023/04/04 03:20:07;;;;;;;9.30;4.03;;;0.20;99.90;;;;;;5000989;28;20450;-80
2023/04/04 03:22:33;;;;;;;9.20;4.40;;;0.10;99.90;;;;;;5016843;28;20139;-80
2023/04/04 03:24:59;;;;;;;8.65;4.07;;;0.90;99.90;;;;;;5049940;28;20133;-80
2023/04/04 03:27:25;;;;;;;6.75;3.40;;;0.10;99.90;;;;;;5016832;28;20045;-80
2023/04/04 03:29:51;;;;;;;8.85;3.80;;;0.10;99.90;;;;;;5016822;28;20049;-80
2023/04/04 03:32:17;;;;;;;10.50;4.03;;;0.10;99.90;;;;;;5016712;28;20500;-80
2023/04/04 03:34:43;;;;;;;10.70;3.95;;;0.80;99.90;;;;;;5016745;28;20052;-80
2023/04/04 03:37:09;;;;;;;8.55;3.60;;;0.10;99.90;;;;;;5032500;28;20041;-80
2023/04/04 03:39:35;;;;;;;7.07;3.60;;;0.10;99.90;;;;;;5032576;28;20045;-80
2023/04/04 03:42:01;;;;;;;6.60;3.40;;;0.20;99.90;;;;;;4984054;28;20045;-80
2023/04/04 03:44:27;;;;;;;7.03;3.47;;;0.20;99.90;;;;;;5049610;28;20049;-81
2023/04/04 03:46:52;;;;;;;7.00;3.50;;;0.30;99.90;;;;;;5032990;28;20053;-79
2023/04/04 03:49:18;;;;;;;8.43;3.80;;;0.30;99.90;;;;;;5049548;28;20049;-80
2023/04/04 03:51:44;;;;;;;7.35;3.60;;;0.40;99.90;;;;;;5032445;28;20076;-79
2023/04/04 03:54:10;;;;;;;7.53;3.38;;;0.40;99.90;;;;;;5015863;28;20058;-79
2023/04/04 03:56:35;;;;;;;9.57;3.40;;;0.40;99.90;;;;;;5032872;28;20050;-79
2023/04/04 03:59:01;;;;;;;7.05;3.10;;;0.40;99.90;;;;;;5016098;28;20104;-79
2023/04/04 04:01:27;;;;;;;8.13;3.40;;;0.40;99.90;;;;;;5016180;28;20044;-80
2023/04/04 04:03:53;;;;;;;6.25;3.22;;;0.40;99.90;;;;;;5016259;28;20076;-80
2023/04/04 04:06:19;;;;;;;8.55;3.40;;;0.50;99.90;;;;;;5015416;28;20146;-79
2023/04/04 04:08:45;;;;;;;8.02;3.70;;;0.40;99.90;;;;;;5032402;28;20052;-79
2023/04/04 04:11:11;;;;;;;7.18;3.35;;;0.30;99.90;;;;;;5032445;28;20041;-79
2023/04/04 04:13:37;;;;;;;7.20;3.17;;;0.20;99.90;;;;;;5032048;28;20103;-79
2023/04/04 04:16:04;;;;;;;7.20;3.45;;;0.70;99.90;;;;;;5032477;28;20095;-79
2023/04/04 04:18:30;;;;;;;8.20;3.70;;;0.20;99.90;;;;;;5016036;28;20088;-79
2023/04/04 04:20:58;;;;;;;6.65;3.38;;;0.20;99.90;;;;;;5032408;28;20088;-79
2023/04/04 04:23:24;;;;;;;9.13;4.13;;;0.20;99.90;;;;;;5015462;28;20046;-79
2023/04/04 04:25:50;;;;;;;9.10;4.10;;;0.20;99.90;;;;;;5032400;28;20053;-79
2023/04/04 04:28:16;;;;;;;9.43;3.90;;;0.10;99.90;;;;;;5032443;28;20049;-79
2023/04/04 04:30:43;;;;;;;9.65;4.00;;;0.10;99.90;;;;;;5032336;28;20405;-79
2023/04/04 04:33:09;;;;;;;8.93;3.78;;;0.00;99.90;;;;;;5048514;28;20057;-79
2023/04/04 04:35:38;;;;;;;7.93;3.95;;;0.00;99.90;;;;;;5032385;28;20054;-80
2023/04/04 04:38:05;;;;;;;6.97;3.58;;;0.20;99.90;;;;;;5032375;28;20057;-80
2023/04/04 04:40:35;;;;;;;11.40;4.13;;;-0.10;99.90;;;;;;5032065;28;20053;-80
2023/04/04 04:43:04;;;;;;;9.43;4.10;;;0.20;99.90;;;;;;5048966;28;20394;-80
2023/04/04 04:45:30;;;;;;;8.38;3.65;;;1.20;99.90;;;;;;5032245;28;20068;-80
2023/04/04 04:47:56;;;;;;;8.05;3.80;;;0.00;99.90;;;;;;5048688;28;20054;-80
2023/04/04 04:50:21;;;;;;;13.45;6.22;;;1.10;99.90;;;;;;5048723;28;20083;-80
2023/04/04 04:52:51;;;;;;;11.95;5.82;;;0.40;99.90;;;;;;5048086;28;20065;-80
2023/04/04 04:55:17;;;;;;;31.15;19.95;;;0.00;99.90;;;;;;5031753;28;20513;-80
2023/04/04 04:57:43;;;;;;;16.92;9.45;;;0.00;99.90;;;;;;5015824;28;20069;-80
2023/04/04 05:00:09;;;;;;;15.50;8.85;;;0.00;99.90;;;;;;4999407;28;20045;-80
2023/04/04 05:02:35;;;;;;;11.35;6.15;;;-0.10;99.90;;;;;;5048337;28;20045;-80
2023/04/04 05:05:01;;;;;;;10.55;4.90;;;-0.10;99.90;;;;;;5048351;28;20104;-80
2023/04/04 05:07:29;;;;;;;11.07;5.60;;;-0.20;99.90;;;;;;5016085;28;20058;-80
2023/04/04 05:09:55;;;;;;;7.65;3.75;;;0.10;99.90;;;;;;5048729;28;20396;-80
2023/04/04 05:12:21;;;;;;;11.88;5.53;;;-0.10;99.90;;;;;;5048286;28;20481;-81
2023/04/04 05:14:46;;;;;;;10.02;5.57;;;-0.10;99.90;;;;;;4999213;28;20052;-80
2023/04/04 05:17:12;;;;;;;10.15;5.50;;;1.00;99.90;;;;;;5017138;28;20050;-80
2023/04/04 05:19:38;;;;;;;8.68;4.32;;;0.00;99.90;;;;;;5035001;28;20045;-80
2023/04/04 05:22:03;;;;;;;10.65;5.65;;;0.10;99.90;;;;;;5051678;28;20076;-80
2023/04/04 05:24:32;;;;;;;7.15;4.07;;;0.10;99.90;;;;;;5051779;28;20477;-80
2023/04/04 05:26:58;;;;;;;15.27;7.63;;;0.10;99.90;;;;;;5035468;28;20037;-80
2023/04/04 05:29:23;;;;;;;13.45;7.72;;;0.10;99.90;;;;;;5052059;28;20140;-80
2023/04/04 05:31:49;;;;;;;10.15;5.03;;;0.20;99.90;;;;;;5002599;28;20049;-80
2023/04/04 05:34:15;;;;;;;8.68;4.03;;;-0.10;99.90;;;;;;5002177;28;20239;-80
2023/04/04 05:36:41;;;;;;;10.48;5.65;;;0.30;99.90;;;;;;5018568;28;20049;-80
2023/04/04 05:39:07;;;;;;;18.42;12.50;;;0.10;99.90;;;;;;5002820;28;20045;-80
2023/04/04 05:41:32;;;;;;;13.45;9.00;;;0.00;99.90;;;;;;5035404;28;20393;-81
2023/04/04 05:43:58;;;;;;;10.35;5.80;;;0.00;99.90;;;;;;5051947;28;20045;-80
2023/04/04 05:46:27;;;;;;;15.27;11.02;;;0.10;99.90;;;;;;5034903;28;20128;-80
2023/04/04 05:48:52;;;;;;;17.80;13.35;;;0.10;99.90;;;;;;5035156;28;20041;-80
2023/04/04 05:51:18;;;;;;;31.73;24.75;;;0.10;99.90;;;;;;5018641;28;20038;-80
2023/04/04 05:53:46;;;;;;;19.88;13.68;;;0.30;99.90;;;;;;5018538;28;20144;-80
2023/04/04 05:56:12;;;;;;;14.63;10.48;;;0.40;99.90;;;;;;5034429;28;20060;-80
2023/04/04 05:58:38;;;;;;;14.23;10.88;;;1.70;99.90;;;;;;5018704;28;20053;-81
2023/04/04 06:01:07;;;;;;;11.23;7.63;;;0.70;99.90;;;;;;5035057;28;20056;-80
2023/04/04 06:03:33;;;;;;;10.70;6.03;;;1.00;99.90;;;;;;5018489;28;20085;-81
2023/04/04 06:06:03;;;;;;;8.98;5.90;;;1.40;99.90;;;;;;5018220;28;20111;-82
2023/04/04 06:08:30;;;;;;;9.38;5.30;;;1.50;99.90;;;;;;5034924;28;20053;-81
2023/04/04 06:10:55;;;;;;;9.23;5.22;;;1.80;99.90;;;;;;5001664;28;20049;-81
2023/04/04 06:13:21;;;;;;;11.20;4.72;;;2.00;99.90;;;;;;5001931;28;20053;-81
2023/04/04 06:15:47;;;;;;;8.65;4.90;;;2.30;99.90;;;;;;5018369;28;20398;-80
2023/04/04 06:18:13;;;;;;;7.18;3.50;;;2.60;99.90;;;;;;5017638;28;20042;-82
2023/04/04 06:20:38;;;;;;;8.38;4.20;;;2.90;99.90;;;;;;5018046;28;20048;-81
2023/04/04 06:23:04;;;;;;;7.78;3.25;;;3.20;99.90;;;;;;5034563;28;20053;-82
2023/04/04 06:25:33;;;;;;;9.52;3.97;;;3.30;99.90;;;;;;5018155;28;20046;-81
2023/04/04 06:27:59;;;;;;;8.73;4.38;;;3.50;99.90;;;;;;5017386;28;20049;-81
2023/04/04 06:30:25;;;;;;;9.27;4.05;;;3.60;99.90;;;;;;5034264;28;20541;-81
2023/04/04 06:32:51;;;;;;;7.97;3.38;;;3.60;99.90;;;;;;5016751;28;20188;-81
2023/04/04 06:35:17;;;;;;;7.57;3.92;;;3.50;99.90;;;;;;5018037;28;20115;-81
2023/04/04 06:37:43;;;;;;;10.43;4.97;;;3.50;99.90;;;;;;5034260;28;20467;-81
2023/04/04 06:40:09;;;;;;;9.73;4.95;;;4.00;99.90;;;;;;5034192;28;20050;-81
2023/04/04 06:42:34;;;;;;;11.45;7.20;;;4.30;99.90;;;;;;5034176;28;20051;-82
2023/04/04 06:45:00;;;;;;;10.15;5.40;;;4.40;99.90;;;;;;5017393;28;20072;-82
2023/04/04 06:47:26;;;;;;;9.32;3.90;;;4.20;99.90;;;;;;5017744;28;20057;-81
2023/04/04 06:49:52;;;;;;;11.82;6.45;;;4.10;99.90;;;;;;5034178;28;20455;-81
2023/04/04 06:52:17;;;;;;;11.18;5.93;;;4.10;99.90;;;;;;5017017;28;20374;-82
2023/04/04 06:54:43;;;;;;;10.55;4.53;;;3.80;99.90;;;;;;5034744;28;20057;-82
2023/04/04 06:57:09;;;;;;;7.85;3.20;;;3.90;99.90;;;;;;5001064;28;20477;-81
2023/04/04 06:59:35;;;;;;;7.82;3.95;;;4.40;99.90;;;;;;5034214;28;20049;-84
2023/04/04 07:02:00;;;;;;;6.68;3.03;;;4.80;99.90;;;;;;5019783;28;20049;-83
2023/04/04 07:04:26;;;;;;;6.85;2.72;;;5.80;99.90;;;;;;5033887;28;20124;-83
2023/04/04 07:06:52;;;;;;;8.32;3.33;;;6.40;99.90;;;;;;5033727;28;20132;-83
2023/04/04 07:09:18;;;;;;;8.45;3.03;;;6.30;99.90;;;;;;5017071;28;20527;-83
2023/04/04 07:11:44;;;;;;;11.18;5.90;;;6.60;99.50;;;;;;5017032;28;20046;-84
2023/04/04 07:14:10;;;;;;;8.15;3.90;;;6.10;97.30;;;;;;5016882;28;20053;-84
2023/04/04 07:16:35;;;;;;;7.95;3.60;;;5.70;96.80;;;;;;5018474;28;20128;-84
2023/04/04 07:19:01;;;;;;;8.20;4.10;;;5.70;98.30;;;;;;5021249;28;20572;-85
2023/04/04 07:21:27;;;;;;;7.13;2.90;;;5.30;97.10;;;;;;5017016;28;20057;-84
2023/04/04 07:23:53;;;;;;;6.68;2.90;;;5.70;99.90;;;;;;5033363;28;20132;-85
2023/04/04 07:26:20;;;;;;;7.55;2.53;;;6.50;99.90;;;;;;5016767;28;20136;-84
2023/04/04 07:28:45;;;;;;;6.18;2.38;;;6.60;96.30;;;;;;5033429;28;20600;-84
2023/04/04 07:31:13;;;;;;;7.45;2.63;;;6.50;97.30;;;;;;5016817;28;20136;-84
2023/04/04 07:33:39;;;;;;;7.97;2.55;;;7.10;96.90;;;;;;5033030;28;20060;-84
2023/04/04 07:36:05;;;;;;;8.00;2.65;;;7.10;93.80;;;;;;5016755;28;20053;-84
2023/04/04 07:38:31;;;;;;;7.32;2.67;;;7.20;93.90;;;;;;5016539;28;20133;-84
2023/04/04 07:40:56;;;;;;;6.97;2.20;;;7.90;94.80;;;;;;5032655;28;20049;-84
2023/04/04 07:43:22;;;;;;;6.90;2.50;;;8.60;91.30;;;;;;5016710;28;20468;-84
2023/04/04 07:45:48;;;;;;;7.15;2.70;;;8.20;90.70;;;;;;5015593;28;20136;-84
2023/04/04 07:48:14;;;;;;;6.70;2.47;;;8.20;91.20;;;;;;5016312;28;20055;-84
2023/04/04 07:50:40;;;;;;;6.20;2.75;;;8.20;90.90;;;;;;5016501;28;20085;-84
2023/04/04 07:53:06;;;;;;;7.25;2.65;;;8.00;90.90;;;;;;5016219;28;20092;-83
2023/04/04 07:55:31;;;;;;;6.30;2.50;;;8.20;91.30;;;;;;5032307;28;20119;-84
2023/04/04 07:57:57;;;;;;;7.25;2.45;;;8.40;90.40;;;;;;5049937;28;20045;-84
2023/04/04 08:00:25;;;;;;;6.80;2.33;;;8.10;90.30;;;;;;5049049;28;20425;-84
2023/04/04 08:02:55;;;;;;;6.38;2.58;;;8.20;90.90;;;;;;5000238;28;20053;-84
2023/04/04 08:05:21;;;;;;;6.50;2.13;;;8.50;90.50;;;;;;5033105;28;20057;-84
2023/04/04 08:07:47;;;;;;;5.68;2.28;;;8.20;89.20;;;;;;5032644;28;20045;-84
2023/04/04 08:10:16;;;;;;;7.90;2.42;;;8.30;87.00;;;;;;5032819;28;20049;-84
2023/04/04 08:12:43;;;;;;;5.53;2.50;;;8.10;90.60;;;;;;5032469;28;20106;-85
2023/04/04 08:15:10;;;;;;;8.70;2.63;;;8.80;87.00;;;;;;5032509;28;20057;-84
2023/04/04 08:17:36;;;;;;;6.18;2.30;;;9.10;88.10;;;;;;5016433;28;20056;-84
2023/04/04 08:20:03;;;;;;;6.15;2.20;;;9.10;88.40;;;;;;5049297;28;20397;-83
2023/04/04 08:22:29;;;;;;;6.10;2.30;;;9.00;80.40;;;;;;5041628;28;20053;-85
2023/04/04 08:24:55;;;;;;;7.65;2.50;;;9.00;79.20;;;;;;5016102;28;20041;-84
2023/04/04 08:27:21;;;;;;;8.05;2.80;;;8.80;78.30;;;;;;5016106;28;20045;-85
2023/04/04 08:29:47;;;;;;;5.18;2.08;;;9.00;80.00;;;;;;5032493;28;20537;-85
2023/04/04 08:32:16;;;;;;;7.53;2.25;;;9.00;74.30;;;;;;5032422;28;20049;-83
2023/04/04 08:34:42;;;;;;;6.93;2.10;;;8.60;75.90;;;;;;4984427;28;20052;-84
2023/04/04 08:37:11;;;;;;;8.15;2.60;;;9.20;76.90;;;;;;5017023;28;20072;-84
2023/04/04 08:39:36;;;;;;;5.78;1.88;;;8.90;73.70;;;;;;5032833;28;20046;-84
2023/04/04 08:42:04;;;;;;;7.00;2.20;;;8.40;73.30;;;;;;5032207;28;20050;-82
2023/04/04 08:44:32;;;;;;;7.25;2.30;;;8.90;74.20;;;;;;5015519;28;20049;-82
2023/04/04 08:47:08;;;;;;;6.28;1.70;;;8.80;71.90;;;;;;5032289;28;20176;-81
2023/04/04 08:49:37;;;;;;;6.25;2.30;;;9.00;63.30;;;;;;5032381;28;20060;-83
2023/04/04 08:52:05;;;;;;;7.20;2.30;;;9.00;62.50;;;;;;5033874;28;20080;-84
2023/04/04 08:54:33;;;;;;;6.25;2.10;;;8.50;60.60;;;;;;5035894;28;20081;-81
2023/04/04 08:56:59;;;;;;;7.18;2.00;;;8.90;64.60;;;;;;5036460;28;20453;-83
2023/04/04 08:59:25;;;;;;;6.25;2.22;;;8.40;60.10;;;;;;5036122;28;20049;-82
2023/04/04 09:02:04;;;;;;;6.47;2.50;;;9.00;65.30;;;;;;5019795;28;20052;-85
2023/04/04 09:04:31;;;;;;;4.97;1.77;;;9.20;60.00;;;;;;5036103;28;20053;-80
2023/04/04 09:06:57;;;;;;;7.05;2.13;;;9.30;59.70;;;;;;5019458;28;20068;-82
2023/04/04 09:09:24;;;;;;;5.07;1.77;;;9.50;59.30;;;;;;5003282;28;20045;-81
2023/04/04 09:11:50;;;;;;;6.22;2.70;;;9.40;56.70;;;;;;5035941;28;20115;-82
2023/04/04 09:14:19;;;;;;;9.95;4.05;;;9.20;60.30;;;;;;5035606;28;20056;-83
2023/04/04 09:16:45;;;;;;;5.45;1.95;;;8.80;60.20;;;;;;5035901;28;20385;-81
2023/04/04 09:19:11;;;;;;;11.20;4.75;;;9.20;61.00;;;;;;5035867;28;20051;-82
2023/04/04 09:21:36;;;;;;;6.97;2.95;;;8.90;62.90;;;;;;5035797;28;20077;-82
2023/04/04 09:24:03;;;;;;;5.85;1.88;;;9.30;64.00;;;;;;5035627;28;20440;-82
2023/04/04 09:26:45;;;;;;;9.50;4.30;;;9.40;60.00;;;;;;5019153;28;20563;-81
2023/04/04 09:29:11;;;;;;;8.00;2.88;;;9.50;59.00;;;;;;5035637;28;20045;-83
2023/04/04 09:31:37;;;;;;;6.75;2.78;;;9.40;61.40;;;;;;5018985;28;20052;-82
2023/04/04 09:34:04;;;;;;;5.95;2.30;;;9.40;63.40;;;;;;5019087;28;20136;-83
2023/04/04 09:36:30;;;;;;;6.57;2.40;;;9.30;62.50;;;;;;5002425;28;20497;-81
2023/04/04 09:38:56;;;;;;;6.65;2.53;;;9.40;60.60;;;;;;5018483;28;20091;-83
2023/04/04 09:41:24;;;;;;;6.30;2.70;;;9.30;61.20;;;;;;5018887;28;20080;-82
2023/04/04 09:43:50;;;;;;;6.57;2.72;;;9.60;60.70;;;;;;5019286;28;20065;-83
2023/04/04 09:46:19;;;;;;;6.38;2.58;;;9.00;60.30;;;;;;5035295;28;20060;-83
2023/04/04 09:48:52;;;;;;;7.75;2.53;;;8.90;59.30;;;;;;5035058;28;20473;-82
2023/04/04 09:51:17;;;;;;;6.95;2.15;;;9.10;60.60;;;;;;5035048;28;20137;-81
2023/04/04 09:53:48;;;;;;;5.72;2.10;;;9.20;61.70;;;;;;5034611;28;20132;-80
2023/04/04 09:56:14;;;;;;;5.93;2.70;;;9.40;58.50;;;;;;5035016;28;20137;-81
2023/04/04 09:58:45;;;;;;;6.65;2.40;;;9.40;61.20;;;;;;5018723;28;20057;-82
2023/04/04 10:01:12;;;;;;;6.93;2.55;;;8.60;58.70;;;;;;5034763;28;20085;-82
2023/04/04 10:03:38;;;;;;;5.93;2.20;;;9.10;61.80;;;;;;5033600;28;20064;-82
2023/04/04 10:06:05;;;;;;;5.88;2.35;;;9.60;61.80;;;;;;5018472;28;20100;-82
2023/04/04 10:08:37;;;;;;;6.32;2.33;;;9.70;61.60;;;;;;5034645;28;20408;-82
2023/04/04 10:11:05;;;;;;;6.82;2.63;;;9.80;61.20;;;;;;5018296;28;20088;-82
2023/04/04 10:13:39;;;;;;;6.88;2.22;;;10.10;61.70;;;;;;5018987;28;20061;-83
2023/04/04 10:16:09;;;;;;;7.93;2.38;;;9.80;58.50;;;;;;5034660;28;20092;-82
2023/04/04 10:18:35;;;;;;;8.82;2.60;;;9.80;58.60;;;;;;5034801;28;20060;-82
2023/04/04 10:21:07;;;;;;;8.63;2.60;;;9.80;58.90;;;;;;5034744;28;20556;-83
2023/04/04 10:23:34;;;;;;;5.78;2.20;;;10.10;60.00;;;;;;5033989;28;20405;-82
2023/04/04 10:26:00;;;;;;;6.78;2.40;;;10.40;58.90;;;;;;5034583;28;20057;-82
2023/04/04 10:28:27;;;;;;;6.57;2.65;;;10.50;59.00;;;;;;5001416;28;20044;-82
2023/04/04 10:31:05;;;;;;;6.28;2.13;;;10.50;56.40;;;;;;5018035;28;20049;-82
2023/04/04 10:33:49;;;;;;;5.97;2.20;;;10.40;55.30;;;;;;5034384;28;20103;-82
2023/04/04 10:36:21;;;;;;;5.20;2.08;;;10.50;56.70;;;;;;5034433;28;20525;-82
2023/04/04 10:38:58;;;;;;;5.78;2.30;;;10.30;54.30;;;;;;5034134;28;20045;-81
2023/04/04 10:41:28;;;;;;;5.90;2.10;;;10.40;55.10;;;;;;5034312;28;20080;-82
2023/04/04 10:43:59;;;;;;;5.82;2.00;;;10.10;52.60;;;;;;5017775;28;20092;-81
2023/04/04 10:46:29;;;;;;;5.57;2.00;;;10.00;53.10;;;;;;5017657;28;20501;-81
2023/04/04 10:48:59;;;;;;;5.40;1.90;;;10.10;54.00;;;;;;5034157;28;20111;-82
2023/04/04 10:51:25;;;;;;;6.45;2.38;;;10.10;51.30;;;;;;5034037;28;20049;-81
2023/04/04 10:53:52;;;;;;;5.90;2.15;;;9.90;50.80;;;;;;5033566;28;20061;-81
2023/04/04 10:56:20;;;;;;;7.63;2.35;;;9.60;51.30;;;;;;5033971;28;20050;-82
2023/04/04 10:58:47;;;;;;;5.65;2.10;;;10.10;54.00;;;;;;5034007;28;20100;-82
2023/04/04 11:01:19;;;;;;;5.18;1.80;;;10.50;55.00;;;;;;5034023;28;20497;-82
2023/04/04 11:04:15;;;;;;;5.15;1.88;;;10.40;54.00;;;;;;5018250;28;20080;-82
2023/04/04 11:07:04;;;;;;;5.93;2.00;;;10.20;51.30;;;;;;5033786;28;20436;-82
2023/04/04 11:10:19;;;;;;;5.95;1.95;;;10.30;54.80;;;;;;5017174;28;20138;-81
2023/04/04 11:12:51;;;;;;;5.22;2.20;;;10.80;53.60;;;;;;4938039;29;20047;-82
2023/04/04 11:15:20;;;;;;;6.18;2.03;;;11.20;53.10;;;;;;4937914;29;20086;-82
2023/04/04 11:18:01;;;;;;;4.53;1.70;;;11.20;52.30;;;;;;4962801;28;20049;-81
2023/04/04 11:20:32;;;;;;;4.63;1.88;;;11.20;51.40;;;;;;5033588;28;20517;-81
2023/04/04 11:23:05;;;;;;;5.97;2.20;;;11.00;50.50;;;;;;5016811;28;20045;-81
2023/04/04 11:25:33;;;;;;;5.35;1.95;;;10.80;51.70;;;;;;5016912;28;20059;-82
2023/04/04 11:28:07;;;;;;;6.22;1.90;;;10.40;50.20;;;;;;5017023;28;20049;-81
2023/04/04 11:30:46;;;;;;;5.78;1.92;;;10.70;51.80;;;;;;5016980;28;20049;-82
2023/04/04 11:33:13;;;;;;;6.07;1.95;;;10.90;47.70;;;;;;5017422;28;20052;-81
2023/04/04 11:35:40;;;;;;;7.30;2.05;;;10.90;50.50;;;;;;5016368;28;20054;-82
2023/04/04 11:38:13;;;;;;;5.40;1.90;;;11.00;51.70;;;;;;5033188;28;20045;-82
2023/04/04 11:40:41;;;;;;;6.57;1.80;;;11.30;48.00;;;;;;5032914;28;20052;-81
2023/04/04 11:43:09;;;;;;;4.20;1.50;;;11.30;45.70;;;;;;5032833;28;20058;-80
2023/04/04 11:45:36;;;;;;;5.22;1.80;;;11.20;47.70;;;;;;5033081;28;20080;-81
2023/04/04 11:48:05;;;;;;;7.32;1.88;;;11.20;45.10;;;;;;5049436;28;20060;-81
2023/04/04 11:50:39;;;;;;;4.82;1.80;;;11.00;46.70;;;;;;5016678;28;20065;-81
2023/04/04 11:53:07;;;;;;;5.40;1.90;;;10.90;46.20;;;;;;5016144;28;20048;-81
2023/04/04 11:55:41;;;;;;;6.10;1.67;;;11.00;44.50;;;;;;5032471;28;20104;-81
2023/04/04 11:58:09;;;;;;;5.72;1.90;;;11.00;45.80;;;;;;5032831;28;20045;-81
2023/04/04 12:00:36;;;;;;;5.63;1.75;;;11.00;45.90;;;;;;5032580;28;20042;-81
2023/04/04 12:03:10;;;;;;;5.90;1.88;;;11.00;43.40;;;;;;5016321;28;20103;-82
2023/04/04 12:05:37;;;;;;;5.13;1.67;;;11.00;47.10;;;;;;5016416;28;20119;-81
2023/04/04 12:08:05;;;;;;;5.57;1.67;;;11.20;46.30;;;;;;5032493;28;20056;-82
2023/04/04 12:10:34;;;;;;;6.20;2.10;;;11.10;44.30;;;;;;5032745;28;20129;-82
2023/04/04 12:13:01;;;;;;;4.72;1.90;;;10.70;46.10;;;;;;5032035;28;20045;-82
2023/04/04 12:15:28;;;;;;;4.15;1.60;;;10.90;47.10;;;;;;5032612;28;20060;-81
2023/04/04 12:17:55;;;;;;;4.35;1.80;;;11.00;45.60;;;;;;4999948;28;20055;-80
2023/04/04 12:20:25;;;;;;;4.43;1.90;;;11.00;48.20;;;;;;5032394;28;20056;-81
2023/04/04 12:22:51;;;;;;;5.38;1.80;;;11.10;44.30;;;;;;5032476;28;20057;-80
2023/04/04 12:25:22;;;;;;;4.80;2.00;;;11.00;44.10;;;;;;5032546;28;20053;-81
2023/04/04 12:27:50;;;;;;;4.72;1.90;;;10.70;45.30;;;;;;5015512;28;20053;-81
2023/04/04 12:30:17;;;;;;;5.50;1.80;;;10.80;46.80;;;;;;5016117;28;20049;-81
2023/04/04 12:32:46;;;;;;;5.00;1.60;;;10.90;46.00;;;;;;5015862;28;20053;-81
2023/04/04 12:35:14;;;;;;;5.40;1.85;;;10.90;42.40;;;;;;5016143;28;20045;-81
2023/04/04 12:38:06;;;;;;;5.80;2.00;;;10.70;42.10;;;;;;5032154;28;20068;-81
2023/04/04 12:40:35;;;;;;;4.35;1.90;;;10.30;44.20;;;;;;5032128;28;20455;-82
2023/04/04 12:43:03;;;;;;;5.18;1.98;;;9.80;43.30;;;;;;5016256;28;20049;-82
2023/04/04 12:45:35;;;;;;;5.85;1.95;;;10.10;44.10;;;;;;5032335;28;20481;-81
2023/04/04 12:48:11;;;;;;;5.85;2.20;;;10.40;44.10;;;;;;5032204;28;20048;-82
2023/04/04 12:50:55;;;;;;;7.15;2.20;;;10.40;45.30;;;;;;5032195;28;20056;-82
2023/04/04 12:53:26;;;;;;;4.97;1.80;;;11.10;45.20;;;;;;5031830;28;20053;-81
2023/04/04 12:55:53;;;;;;;4.83;1.80;;;10.50;45.00;;;;;;5031885;28;20089;-81